sensor_id;sensor_type;location;lat;lon;timestamp;temperature;humidity
23237;DHT22;11787;52.018;8.570;2023-03-03T00:01:06;2.10;99.90
23237;DHT22;11787;52.018;8.570;2023-03-03T00:03:31;2.10;99.90
23237;DHT22;11787;52.018;8.570;2023-03-03T00:05:57;2.00;99.90
23237;DHT22;11787;52.018;8.570;2023-03-03T00:08:22;2.00;99.90
23237;DHT22;11787;52.018;8.570;2023-03-03T00:10:48;2.00;99.90
23237;DHT22;11787;52.018;8.570;2023-03-03T00:13:23;2.00;99.90
23237;DHT22;11787;52.018;8.570;2023-03-03T00:15:49;2.00;99.90
23237;DHT22;11787;52.018;8.570;2023-03-03T00:18:25;2.00;99.90
23237;DHT22;11787;52.018;8.570;2023-03-03T00:20:56;2.10;99.90
23237;DHT22;11787;52.018;8.570;2023-03-03T00:23:38;2.00;99.90
23237;DHT22;11787;52.018;8.570;2023-03-03T00:26:07;2.10;99.90
23237;DHT22;11787;52.018;8.570;2023-03-03T00:28:44;2.10;99.90
23237;DHT22;11787;52.018;8.570;2023-03-03T00:31:16;2.10;99.90
23237;DHT22;11787;52.018;8.570;2023-03-03T00:33:44;2.10;99.90
23237;DHT22;11787;52.018;8.570;2023-03-03T00:38:39;2.10;99.90
23237;DHT22;11787;52.018;8.570;2023-03-03T00:43:59;2.00;99.90
23237;DHT22;11787;52.018;8.570;2023-03-03T00:46:25;2.00;99.90
23237;DHT22;11787;52.018;8.570;2023-03-03T00:48:50;2.00;99.90
23237;DHT22;11787;52.018;8.570;2023-03-03T00:53:48;2.10;99.90
23237;DHT22;11787;52.018;8.570;2023-03-03T00:56:14;2.10;99.90
23237;DHT22;11787;52.018;8.570;2023-03-03T00:58:40;2.10;99.90
23237;DHT22;11787;52.018;8.570;2023-03-03T01:01:05;2.10;99.90
23237;DHT22;11787;52.018;8.570;2023-03-03T01:03:31;2.10;99.90
23237;DHT22;11787;52.018;8.570;2023-03-03T01:05:56;2.10;99.90
23237;DHT22;11787;52.018;8.570;2023-03-03T01:08:22;2.10;99.90
23237;DHT22;11787;52.018;8.570;2023-03-03T01:10:49;2.10;99.90
23237;DHT22;11787;52.018;8.570;2023-03-03T01:13:21;2.10;99.90
23237;DHT22;11787;52.018;8.570;2023-03-03T01:15:47;2.10;99.90
23237;DHT22;11787;52.018;8.570;2023-03-03T01:18:13;2.20;99.90
23237;DHT22;11787;52.018;8.570;2023-03-03T01:20:39;2.10;99.90
23237;DHT22;11787;52.018;8.570;2023-03-03T01:23:05;2.10;99.90
23237;DHT22;11787;52.018;8.570;2023-03-03T01:25:31;2.20;99.90
23237;DHT22;11787;52.018;8.570;2023-03-03T01:27:56;2.10;99.90
23237;DHT22;11787;52.018;8.570;2023-03-03T01:30:22;2.10;99.90
23237;DHT22;11787;52.018;8.570;2023-03-03T01:32:47;2.10;99.90
23237;DHT22;11787;52.018;8.570;2023-03-03T01:35:13;2.10;99.90
23237;DHT22;11787;52.018;8.570;2023-03-03T01:37:39;2.10;99.90
23237;DHT22;11787;52.018;8.570;2023-03-03T01:40:05;2.10;99.90
23237;DHT22;11787;52.018;8.570;2023-03-03T01:42:31;2.00;99.90
23237;DHT22;11787;52.018;8.570;2023-03-03T01:45:16;2.00;99.90
23237;DHT22;11787;52.018;8.570;2023-03-03T01:48:04;2.00;99.90
23237;DHT22;11787;52.018;8.570;2023-03-03T01:52:53;2.00;99.90
23237;DHT22;11787;52.018;8.570;2023-03-03T01:55:21;2.00;99.90
23237;DHT22;11787;52.018;8.570;2023-03-03T01:58:20;2.00;99.90
23237;DHT22;11787;52.018;8.570;2023-03-03T02:00:39;2.00;99.90
23237;DHT22;11787;52.018;8.570;2023-03-03T02:03:06;2.10;99.90
23237;DHT22;11787;52.018;8.570;2023-03-03T02:05:32;2.00;99.90
23237;DHT22;11787;52.018;8.570;2023-03-03T02:07:57;2.10;99.90
23237;DHT22;11787;52.018;8.570;2023-03-03T02:10:23;2.10;99.90
23237;DHT22;11787;52.018;8.570;2023-03-03T02:12:52;2.10;99.90
23237;DHT22;11787;52.018;8.570;2023-03-03T02:17:47;2.00;99.90
23237;DHT22;11787;52.018;8.570;2023-03-03T02:25:05;2.00;99.90
23237;DHT22;11787;52.018;8.570;2023-03-03T02:27:32;2.00;99.90
23237;DHT22;11787;52.018;8.570;2023-03-03T02:30:06;2.00;99.90
23237;DHT22;11787;52.018;8.570;2023-03-03T02:32:32;2.00;99.90
23237;DHT22;11787;52.018;8.570;2023-03-03T02:34:57;2.00;99.90
23237;DHT22;11787;52.018;8.570;2023-03-03T02:37:23;2.00;99.90
23237;DHT22;11787;52.018;8.570;2023-03-03T02:39:49;2.00;99.90
23237;DHT22;11787;52.018;8.570;2023-03-03T02:42:16;1.90;99.90
23237;DHT22;11787;52.018;8.570;2023-03-03T02:44:44;1.90;99.90
23237;DHT22;11787;52.018;8.570;2023-03-03T02:47:09;1.90;99.90
23237;DHT22;11787;52.018;8.570;2023-03-03T02:49:35;1.90;99.90
23237;DHT22;11787;52.018;8.570;2023-03-03T02:52:02;1.90;99.90
23237;DHT22;11787;52.018;8.570;2023-03-03T02:54:28;1.90;99.90
23237;DHT22;11787;52.018;8.570;2023-03-03T02:56:57;1.90;99.90
23237;DHT22;11787;52.018;8.570;2023-03-03T02:59:23;1.90;99.90
23237;DHT22;11787;52.018;8.570;2023-03-03T03:01:49;1.90;99.90
23237;DHT22;11787;52.018;8.570;2023-03-03T03:04:15;1.90;99.90
23237;DHT22;11787;52.018;8.570;2023-03-03T03:06:41;1.90;99.90
23237;DHT22;11787;52.018;8.570;2023-03-03T03:09:07;1.90;99.90
23237;DHT22;11787;52.018;8.570;2023-03-03T03:11:33;1.90;99.90
23237;DHT22;11787;52.018;8.570;2023-03-03T03:14:03;1.80;99.90
23237;DHT22;11787;52.018;8.570;2023-03-03T03:16:29;1.80;99.90
23237;DHT22;11787;52.018;8.570;2023-03-03T03:18:56;1.80;99.90
23237;DHT22;11787;52.018;8.570;2023-03-03T03:21:22;1.70;99.90
23237;DHT22;11787;52.018;8.570;2023-03-03T03:23:47;1.70;99.90
23237;DHT22;11787;52.018;8.570;2023-03-03T03:26:13;1.70;99.90
23237;DHT22;11787;52.018;8.570;2023-03-03T03:28:39;1.80;99.90
23237;DHT22;11787;52.018;8.570;2023-03-03T03:31:04;1.80;99.90
23237;DHT22;11787;52.018;8.570;2023-03-03T03:33:30;1.70;99.90
23237;DHT22;11787;52.018;8.570;2023-03-03T03:35:57;1.80;99.90
23237;DHT22;11787;52.018;8.570;2023-03-03T03:38:23;1.80;99.90
23237;DHT22;11787;52.018;8.570;2023-03-03T03:40:50;1.80;99.90
23237;DHT22;11787;52.018;8.570;2023-03-03T03:43:15;1.80;99.90
23237;DHT22;11787;52.018;8.570;2023-03-03T03:45:41;1.80;99.90
23237;DHT22;11787;52.018;8.570;2023-03-03T03:48:06;1.80;99.90
23237;DHT22;11787;52.018;8.570;2023-03-03T03:50:32;1.70;99.90
23237;DHT22;11787;52.018;8.570;2023-03-03T03:52:57;1.70;99.90
23237;DHT22;11787;52.018;8.570;2023-03-03T03:55:23;1.70;99.90
23237;DHT22;11787;52.018;8.570;2023-03-03T03:57:48;1.70;99.90
23237;DHT22;11787;52.018;8.570;2023-03-03T04:00:14;1.70;99.90
23237;DHT22;11787;52.018;8.570;2023-03-03T04:02:39;1.70;99.90
23237;DHT22;11787;52.018;8.570;2023-03-03T04:05:05;1.70;99.90
23237;DHT22;11787;52.018;8.570;2023-03-03T04:07:31;1.70;99.90
23237;DHT22;11787;52.018;8.570;2023-03-03T04:09:57;1.60;99.90
23237;DHT22;11787;52.018;8.570;2023-03-03T04:12:22;1.60;99.90
23237;DHT22;11787;52.018;8.570;2023-03-03T04:14:48;1.60;99.90
23237;DHT22;11787;52.018;8.570;2023-03-03T04:17:17;1.50;99.90
23237;DHT22;11787;52.018;8.570;2023-03-03T04:19:43;1.50;99.90
23237;DHT22;11787;52.018;8.570;2023-03-03T04:22:09;1.40;99.90
23237;DHT22;11787;52.018;8.570;2023-03-03T04:24:34;1.40;99.90
23237;DHT22;11787;52.018;8.570;2023-03-03T04:27:00;1.40;99.90
23237;DHT22;11787;52.018;8.570;2023-03-03T04:29:25;1.30;99.90
23237;DHT22;11787;52.018;8.570;2023-03-03T04:31:51;1.30;99.90
23237;DHT22;11787;52.018;8.570;2023-03-03T04:34:16;1.40;99.90
23237;DHT22;11787;52.018;8.570;2023-03-03T04:36:42;1.40;99.90
23237;DHT22;11787;52.018;8.570;2023-03-03T04:39:07;1.40;99.90
23237;DHT22;11787;52.018;8.570;2023-03-03T04:41:33;1.40;99.90
23237;DHT22;11787;52.018;8.570;2023-03-03T04:43:58;1.40;99.90
23237;DHT22;11787;52.018;8.570;2023-03-03T04:46:23;1.50;99.90
23237;DHT22;11787;52.018;8.570;2023-03-03T04:48:49;1.50;99.90
23237;DHT22;11787;52.018;8.570;2023-03-03T04:51:14;1.50;99.90
23237;DHT22;11787;52.018;8.570;2023-03-03T04:53:40;1.50;99.90
23237;DHT22;11787;52.018;8.570;2023-03-03T04:56:06;1.40;99.90
23237;DHT22;11787;52.018;8.570;2023-03-03T04:58:31;1.50;99.90
23237;DHT22;11787;52.018;8.570;2023-03-03T05:00:57;1.40;99.90
23237;DHT22;11787;52.018;8.570;2023-03-03T05:03:22;1.50;99.90
23237;DHT22;11787;52.018;8.570;2023-03-03T05:05:48;1.40;99.90
23237;DHT22;11787;52.018;8.570;2023-03-03T05:08:14;1.40;99.90
23237;DHT22;11787;52.018;8.570;2023-03-03T05:10:39;1.40;99.90
23237;DHT22;11787;52.018;8.570;2023-03-03T05:13:05;1.40;99.90
23237;DHT22;11787;52.018;8.570;2023-03-03T05:15:31;1.40;99.90
23237;DHT22;11787;52.018;8.570;2023-03-03T05:17:56;1.40;99.90
23237;DHT22;11787;52.018;8.570;2023-03-03T05:20:22;1.40;99.90
23237;DHT22;11787;52.018;8.570;2023-03-03T05:22:47;1.40;99.90
23237;DHT22;11787;52.018;8.570;2023-03-03T05:25:13;1.40;99.90
23237;DHT22;11787;52.018;8.570;2023-03-03T05:27:39;1.40;99.90
23237;DHT22;11787;52.018;8.570;2023-03-03T05:30:04;1.30;99.90
23237;DHT22;11787;52.018;8.570;2023-03-03T05:32:30;1.40;99.90
23237;DHT22;11787;52.018;8.570;2023-03-03T05:34:56;1.40;99.90
23237;DHT22;11787;52.018;8.570;2023-03-03T05:37:21;1.40;99.90
23237;DHT22;11787;52.018;8.570;2023-03-03T05:39:48;1.40;99.90
23237;DHT22;11787;52.018;8.570;2023-03-03T05:42:14;1.30;99.90
23237;DHT22;11787;52.018;8.570;2023-03-03T05:44:40;1.30;99.90
23237;DHT22;11787;52.018;8.570;2023-03-03T05:47:05;1.30;99.90
23237;DHT22;11787;52.018;8.570;2023-03-03T05:49:31;1.30;99.90
23237;DHT22;11787;52.018;8.570;2023-03-03T05:51:56;1.20;99.90
23237;DHT22;11787;52.018;8.570;2023-03-03T05:54:23;1.30;99.90
23237;DHT22;11787;52.018;8.570;2023-03-03T05:56:49;1.30;99.90
23237;DHT22;11787;52.018;8.570;2023-03-03T05:59:14;1.20;99.90
23237;DHT22;11787;52.018;8.570;2023-03-03T06:01:40;1.30;99.90
23237;DHT22;11787;52.018;8.570;2023-03-03T06:04:05;1.30;99.90
23237;DHT22;11787;52.018;8.570;2023-03-03T06:06:31;1.30;99.90
23237;DHT22;11787;52.018;8.570;2023-03-03T06:08:56;1.30;99.90
23237;DHT22;11787;52.018;8.570;2023-03-03T06:11:22;1.30;99.90
23237;DHT22;11787;52.018;8.570;2023-03-03T06:13:47;1.30;99.90
23237;DHT22;11787;52.018;8.570;2023-03-03T06:16:13;1.20;99.90
23237;DHT22;11787;52.018;8.570;2023-03-03T06:18:38;1.20;99.90
23237;DHT22;11787;52.018;8.570;2023-03-03T06:21:04;1.30;99.90
23237;DHT22;11787;52.018;8.570;2023-03-03T06:23:30;1.30;99.90
23237;DHT22;11787;52.018;8.570;2023-03-03T06:25:55;1.30;99.90
23237;DHT22;11787;52.018;8.570;2023-03-03T06:28:21;1.30;99.90
23237;DHT22;11787;52.018;8.570;2023-03-03T06:30:46;1.30;99.90
23237;DHT22;11787;52.018;8.570;2023-03-03T06:33:12;1.30;99.90
23237;DHT22;11787;52.018;8.570;2023-03-03T06:35:37;1.30;99.90
23237;DHT22;11787;52.018;8.570;2023-03-03T06:38:02;1.30;99.90
23237;DHT22;11787;52.018;8.570;2023-03-03T06:40:28;1.20;99.90
23237;DHT22;11787;52.018;8.570;2023-03-03T06:42:53;1.10;99.90
23237;DHT22;11787;52.018;8.570;2023-03-03T06:45:19;1.10;99.90
23237;DHT22;11787;52.018;8.570;2023-03-03T06:47:45;1.10;99.90
23237;DHT22;11787;52.018;8.570;2023-03-03T06:50:10;1.10;99.90
23237;DHT22;11787;52.018;8.570;2023-03-03T06:52:36;1.10;99.90
23237;DHT22;11787;52.018;8.570;2023-03-03T06:55:09;1.10;99.90
23237;DHT22;11787;52.018;8.570;2023-03-03T06:57:36;1.10;99.90
23237;DHT22;11787;52.018;8.570;2023-03-03T07:00:23;1.10;99.90
23237;DHT22;11787;52.018;8.570;2023-03-03T07:02:52;1.20;99.90
23237;DHT22;11787;52.018;8.570;2023-03-03T07:05:21;1.20;99.90
23237;DHT22;11787;52.018;8.570;2023-03-03T07:07:48;1.20;99.90
23237;DHT22;11787;52.018;8.570;2023-03-03T07:10:19;1.20;99.90
23237;DHT22;11787;52.018;8.570;2023-03-03T07:12:46;1.20;99.90
23237;DHT22;11787;52.018;8.570;2023-03-03T07:15:14;1.30;99.90
23237;DHT22;11787;52.018;8.570;2023-03-03T07:17:41;1.30;99.90
23237;DHT22;11787;52.018;8.570;2023-03-03T07:20:10;1.30;99.90
23237;DHT22;11787;52.018;8.570;2023-03-03T07:22:39;1.30;99.90
23237;DHT22;11787;52.018;8.570;2023-03-03T07:25:05;1.30;99.90
23237;DHT22;11787;52.018;8.570;2023-03-03T07:27:38;1.30;99.90
23237;DHT22;11787;52.018;8.570;2023-03-03T07:30:20;1.40;99.90
23237;DHT22;11787;52.018;8.570;2023-03-03T07:32:47;1.40;99.90
23237;DHT22;11787;52.018;8.570;2023-03-03T07:35:34;1.40;99.90
23237;DHT22;11787;52.018;8.570;2023-03-03T07:38:01;1.40;99.90
23237;DHT22;11787;52.018;8.570;2023-03-03T07:42:55;1.30;99.90
23237;DHT22;11787;52.018;8.570;2023-03-03T07:45:22;1.30;99.90
23237;DHT22;11787;52.018;8.570;2023-03-03T07:47:49;1.30;99.90
23237;DHT22;11787;52.018;8.570;2023-03-03T07:50:15;1.30;99.90
23237;DHT22;11787;52.018;8.570;2023-03-03T07:52:43;1.30;99.90
23237;DHT22;11787;52.018;8.570;2023-03-03T07:55:44;1.30;99.90
23237;DHT22;11787;52.018;8.570;2023-03-03T08:03:15;1.40;99.90
23237;DHT22;11787;52.018;8.570;2023-03-03T08:05:42;1.40;99.90
23237;DHT22;11787;52.018;8.570;2023-03-03T08:10:42;1.50;99.90
23237;DHT22;11787;52.018;8.570;2023-03-03T08:13:53;1.50;99.90
23237;DHT22;11787;52.018;8.570;2023-03-03T08:18:48;1.50;99.90
23237;DHT22;11787;52.018;8.570;2023-03-03T08:21:17;1.50;99.90
23237;DHT22;11787;52.018;8.570;2023-03-03T08:23:43;1.60;99.90
23237;DHT22;11787;52.018;8.570;2023-03-03T08:26:09;1.70;99.90
23237;DHT22;11787;52.018;8.570;2023-03-03T08:28:36;1.60;99.90
23237;DHT22;11787;52.018;8.570;2023-03-03T08:31:02;1.60;99.90
23237;DHT22;11787;52.018;8.570;2023-03-03T08:33:28;1.60;99.90
23237;DHT22;11787;52.018;8.570;2023-03-03T08:35:53;1.60;99.90
23237;DHT22;11787;52.018;8.570;2023-03-03T08:38:19;1.70;99.90
23237;DHT22;11787;52.018;8.570;2023-03-03T08:40:45;1.70;99.90
23237;DHT22;11787;52.018;8.570;2023-03-03T08:43:11;1.70;99.90
23237;DHT22;11787;52.018;8.570;2023-03-03T08:45:44;1.60;99.90
23237;DHT22;11787;52.018;8.570;2023-03-03T08:48:10;1.60;99.90
23237;DHT22;11787;52.018;8.570;2023-03-03T08:50:36;1.70;99.90
23237;DHT22;11787;52.018;8.570;2023-03-03T08:53:02;1.70;99.90
23237;DHT22;11787;52.018;8.570;2023-03-03T08:55:28;1.70;99.90
23237;DHT22;11787;52.018;8.570;2023-03-03T08:57:54;1.70;99.90
23237;DHT22;11787;52.018;8.570;2023-03-03T09:00:19;1.80;99.90
23237;DHT22;11787;52.018;8.570;2023-03-03T09:02:45;1.80;99.90
23237;DHT22;11787;52.018;8.570;2023-03-03T09:05:11;1.80;99.90
23237;DHT22;11787;52.018;8.570;2023-03-03T09:07:37;1.90;99.90
23237;DHT22;11787;52.018;8.570;2023-03-03T09:10:04;1.80;99.90
23237;DHT22;11787;52.018;8.570;2023-03-03T09:12:33;1.90;99.90
23237;DHT22;11787;52.018;8.570;2023-03-03T09:14:59;2.00;99.90
23237;DHT22;11787;52.018;8.570;2023-03-03T09:17:34;2.10;99.90
23237;DHT22;11787;52.018;8.570;2023-03-03T09:22:44;2.20;99.90
23237;DHT22;11787;52.018;8.570;2023-03-03T09:28:04;2.30;99.90
23237;DHT22;11787;52.018;8.570;2023-03-03T09:30:44;2.40;99.90
23237;DHT22;11787;52.018;8.570;2023-03-03T09:33:16;2.40;99.90
23237;DHT22;11787;52.018;8.570;2023-03-03T09:35:44;2.40;99.90
23237;DHT22;11787;52.018;8.570;2023-03-03T09:40:50;2.50;99.90
23237;DHT22;11787;52.018;8.570;2023-03-03T09:51:31;2.80;99.90
23237;DHT22;11787;52.018;8.570;2023-03-03T09:54:05;2.90;99.90
23237;DHT22;11787;52.018;8.570;2023-03-03T09:56:34;2.80;99.90
23237;DHT22;11787;52.018;8.570;2023-03-03T10:01:50;2.90;99.90
23237;DHT22;11787;52.018;8.570;2023-03-03T10:04:23;3.00;99.90
23237;DHT22;11787;52.018;8.570;2023-03-03T10:12:19;3.00;99.90
23237;DHT22;11787;52.018;8.570;2023-03-03T10:22:55;2.90;99.90
23237;DHT22;11787;52.018;8.570;2023-03-03T10:25:24;2.90;99.90
23237;DHT22;11787;52.018;8.570;2023-03-03T10:28:17;2.90;99.90
23237;DHT22;11787;52.018;8.570;2023-03-03T10:30:48;2.90;99.90
23237;DHT22;11787;52.018;8.570;2023-03-03T10:36:04;3.00;99.90
23237;DHT22;11787;52.018;8.570;2023-03-03T10:41:27;3.00;99.90
23237;DHT22;11787;52.018;8.570;2023-03-03T10:44:01;3.10;99.90
23237;DHT22;11787;52.018;8.570;2023-03-03T10:46:33;3.10;99.90
23237;DHT22;11787;52.018;8.570;2023-03-03T10:54:21;3.10;99.90
23237;DHT22;11787;52.018;8.570;2023-03-03T10:56:53;3.10;99.90
23237;DHT22;11787;52.018;8.570;2023-03-03T10:59:37;3.20;99.90
23237;DHT22;11787;52.018;8.570;2023-03-03T11:04:54;3.50;99.90
23237;DHT22;11787;52.018;8.570;2023-03-03T11:07:30;3.60;99.90
23237;DHT22;11787;52.018;8.570;2023-03-03T11:13:18;4.00;99.90
23237;DHT22;11787;52.018;8.570;2023-03-03T11:18:26;4.10;99.90
23237;DHT22;11787;52.018;8.570;2023-03-03T11:21:12;4.20;99.90
23237;DHT22;11787;52.018;8.570;2023-03-03T11:26:24;4.00;99.90
23237;DHT22;11787;52.018;8.570;2023-03-03T11:29:00;4.10;99.90
23237;DHT22;11787;52.018;8.570;2023-03-03T11:36:29;4.50;99.90
23237;DHT22;11787;52.018;8.570;2023-03-03T11:39:15;4.50;99.90
23237;DHT22;11787;52.018;8.570;2023-03-03T11:44:30;4.30;99.90
23237;DHT22;11787;52.018;8.570;2023-03-03T11:52:02;4.40;99.90
23237;DHT22;11787;52.018;8.570;2023-03-03T11:54:42;4.50;99.90
23237;DHT22;11787;52.018;8.570;2023-03-03T12:02:11;4.70;99.90
23237;DHT22;11787;52.018;8.570;2023-03-03T12:04:42;4.60;99.90
23237;DHT22;11787;52.018;8.570;2023-03-03T12:07:19;4.70;99.90
23237;DHT22;11787;52.018;8.570;2023-03-03T12:09:57;4.70;99.90
23237;DHT22;11787;52.018;8.570;2023-03-03T12:12:38;4.80;99.90
23237;DHT22;11787;52.018;8.570;2023-03-03T12:48:32;5.20;99.90
23237;DHT22;11787;52.018;8.570;2023-03-03T12:50:54;5.10;99.90
23237;DHT22;11787;52.018;8.570;2023-03-03T12:53:51;5.30;99.90
23237;DHT22;11787;52.018;8.570;2023-03-03T12:59:10;5.30;99.90
23237;DHT22;11787;52.018;8.570;2023-03-03T13:07:18;5.00;99.90
23237;DHT22;11787;52.018;8.570;2023-03-03T13:18:15;5.60;99.90
23237;DHT22;11787;52.018;8.570;2023-03-03T13:26:21;5.90;99.90
23237;DHT22;11787;52.018;8.570;2023-03-03T13:31:47;6.10;99.90
23237;DHT22;11787;52.018;8.570;2023-03-03T13:37:48;6.00;99.90
23237;DHT22;11787;52.018;8.570;2023-03-03T13:39:56;5.80;99.90
23237;DHT22;11787;52.018;8.570;2023-03-03T13:42:36;5.90;99.90
23237;DHT22;11787;52.018;8.570;2023-03-03T13:45:12;6.00;99.90
23237;DHT22;11787;52.018;8.570;2023-03-03T13:47:47;6.00;99.90
23237;DHT22;11787;52.018;8.570;2023-03-03T13:50:26;5.90;99.90
23237;DHT22;11787;52.018;8.570;2023-03-03T13:53:07;5.90;99.90
23237;DHT22;11787;52.018;8.570;2023-03-03T13:55:44;6.00;99.90
23237;DHT22;11787;52.018;8.570;2023-03-03T13:58:28;6.00;99.90
23237;DHT22;11787;52.018;8.570;2023-03-03T14:01:10;5.90;99.90
23237;DHT22;11787;52.018;8.570;2023-03-03T14:06:28;5.70;99.90
23237;DHT22;11787;52.018;8.570;2023-03-03T14:09:17;5.70;99.90
23237;DHT22;11787;52.018;8.570;2023-03-03T14:14:43;5.80;99.90
23237;DHT22;11787;52.018;8.570;2023-03-03T14:17:31;5.70;99.90
23237;DHT22;11787;52.018;8.570;2023-03-03T14:23:02;5.50;99.90
23237;DHT22;11787;52.018;8.570;2023-03-03T14:25:58;5.50;99.90
23237;DHT22;11787;52.018;8.570;2023-03-03T14:28:27;5.50;99.90
23237;DHT22;11787;52.018;8.570;2023-03-03T14:30:55;5.50;99.90
23237;DHT22;11787;52.018;8.570;2023-03-03T14:33:25;5.60;99.90
23237;DHT22;11787;52.018;8.570;2023-03-03T14:38:36;5.50;99.90
23237;DHT22;11787;52.018;8.570;2023-03-03T14:41:33;5.40;99.90
23237;DHT22;11787;52.018;8.570;2023-03-03T14:44:20;5.20;99.90
23237;DHT22;11787;52.018;8.570;2023-03-03T14:47:04;5.20;99.90
23237;DHT22;11787;52.018;8.570;2023-03-03T14:49:37;5.20;99.90
23237;DHT22;11787;52.018;8.570;2023-03-03T14:54:42;5.00;99.90
23237;DHT22;11787;52.018;8.570;2023-03-03T15:00:03;4.90;99.90
23237;DHT22;11787;52.018;8.570;2023-03-03T15:03:16;4.80;99.90
23237;DHT22;11787;52.018;8.570;2023-03-03T15:05:51;4.70;99.90
23237;DHT22;11787;52.018;8.570;2023-03-03T15:08:26;4.60;99.90
23237;DHT22;11787;52.018;8.570;2023-03-03T15:11:31;4.60;99.90
23237;DHT22;11787;52.018;8.570;2023-03-03T15:14:17;4.60;99.90
23237;DHT22;11787;52.018;8.570;2023-03-03T15:16:43;4.60;99.90
23237;DHT22;11787;52.018;8.570;2023-03-03T15:21:49;4.50;99.90
23237;DHT22;11787;52.018;8.570;2023-03-03T15:24:33;4.50;99.90
23237;DHT22;11787;52.018;8.570;2023-03-03T15:27:04;4.50;99.90
23237;DHT22;11787;52.018;8.570;2023-03-03T15:32:24;4.40;99.90
23237;DHT22;11787;52.018;8.570;2023-03-03T15:38:08;4.40;99.90
23237;DHT22;11787;52.018;8.570;2023-03-03T15:40:48;4.40;99.90
23237;DHT22;11787;52.018;8.570;2023-03-03T15:52:07;4.40;99.90
23237;DHT22;11787;52.018;8.570;2023-03-03T15:54:29;4.40;99.90
23237;DHT22;11787;52.018;8.570;2023-03-03T15:57:04;4.50;99.90
23237;DHT22;11787;52.018;8.570;2023-03-03T16:02:20;4.40;99.90
23237;DHT22;11787;52.018;8.570;2023-03-03T16:05:06;4.50;99.90
23237;DHT22;11787;52.018;8.570;2023-03-03T16:07:57;4.50;99.90
23237;DHT22;11787;52.018;8.570;2023-03-03T16:18:26;4.50;99.90
23237;DHT22;11787;52.018;8.570;2023-03-03T16:28:17;4.50;99.90
23237;DHT22;11787;52.018;8.570;2023-03-03T16:33:20;4.40;99.90
23237;DHT22;11787;52.018;8.570;2023-03-03T16:38:29;4.40;99.90
23237;DHT22;11787;52.018;8.570;2023-03-03T16:40:57;4.40;99.90
23237;DHT22;11787;52.018;8.570;2023-03-03T16:45:55;4.30;99.90
23237;DHT22;11787;52.018;8.570;2023-03-03T16:48:25;4.20;99.90
23237;DHT22;11787;52.018;8.570;2023-03-03T17:06:21;4.10;99.90
23237;DHT22;11787;52.018;8.570;2023-03-03T17:09:31;4.10;99.90
23237;DHT22;11787;52.018;8.570;2023-03-03T17:11:43;4.10;99.90
23237;DHT22;11787;52.018;8.570;2023-03-03T17:16:59;4.00;99.90
23237;DHT22;11787;52.018;8.570;2023-03-03T17:27:42;3.80;99.90
23237;DHT22;11787;52.018;8.570;2023-03-03T17:30:13;3.80;99.90
23237;DHT22;11787;52.018;8.570;2023-03-03T17:32:54;3.70;99.90
23237;DHT22;11787;52.018;8.570;2023-03-03T17:38:01;3.70;99.90
23237;DHT22;11787;52.018;8.570;2023-03-03T17:40:35;3.60;99.90
23237;DHT22;11787;52.018;8.570;2023-03-03T17:45:41;3.60;99.90
23237;DHT22;11787;52.018;8.570;2023-03-03T17:56:04;3.50;99.90
23237;DHT22;11787;52.018;8.570;2023-03-03T17:58:47;3.50;99.90
23237;DHT22;11787;52.018;8.570;2023-03-03T18:27:12;3.70;99.90
23237;DHT22;11787;52.018;8.570;2023-03-03T18:29:38;3.60;99.90
23237;DHT22;11787;52.018;8.570;2023-03-03T18:32:16;3.60;99.90
23237;DHT22;11787;52.018;8.570;2023-03-03T18:34:42;3.60;99.90
23237;DHT22;11787;52.018;8.570;2023-03-03T18:42:37;3.70;99.90
23237;DHT22;11787;52.018;8.570;2023-03-03T18:55:44;3.70;99.90
23237;DHT22;11787;52.018;8.570;2023-03-03T19:00:50;3.60;99.90
23237;DHT22;11787;52.018;8.570;2023-03-03T19:05:58;3.60;99.90
23237;DHT22;11787;52.018;8.570;2023-03-03T19:16:37;3.60;99.90
23237;DHT22;11787;52.018;8.570;2023-03-03T19:19:07;3.70;99.90
23237;DHT22;11787;52.018;8.570;2023-03-03T19:21:34;3.70;99.90
23237;DHT22;11787;52.018;8.570;2023-03-03T19:24:03;3.70;99.90
23237;DHT22;11787;52.018;8.570;2023-03-03T19:31:27;3.80;99.90
23237;DHT22;11787;52.018;8.570;2023-03-03T19:49:11;3.90;99.90
23237;DHT22;11787;52.018;8.570;2023-03-03T19:52:00;3.90;99.90
23237;DHT22;11787;52.018;8.570;2023-03-03T19:56:59;3.90;99.90
23237;DHT22;11787;52.018;8.570;2023-03-03T19:59:39;3.90;99.90
23237;DHT22;11787;52.018;8.570;2023-03-03T20:12:21;3.90;99.90
23237;DHT22;11787;52.018;8.570;2023-03-03T20:14:49;3.90;99.90
23237;DHT22;11787;52.018;8.570;2023-03-03T20:25:21;4.00;99.90
23237;DHT22;11787;52.018;8.570;2023-03-03T20:40:25;4.00;99.90
23237;DHT22;11787;52.018;8.570;2023-03-03T20:45:42;4.00;99.90
23237;DHT22;11787;52.018;8.570;2023-03-03T20:56:04;4.00;99.90
23237;DHT22;11787;52.018;8.570;2023-03-03T20:58:55;4.10;99.90
23237;DHT22;11787;52.018;8.570;2023-03-03T21:01:47;4.10;99.90
23237;DHT22;11787;52.018;8.570;2023-03-03T21:04:16;4.10;99.90
23237;DHT22;11787;52.018;8.570;2023-03-03T21:06:41;4.10;99.90
23237;DHT22;11787;52.018;8.570;2023-03-03T21:09:07;4.10;99.90
23237;DHT22;11787;52.018;8.570;2023-03-03T21:11:46;4.10;99.90
23237;DHT22;11787;52.018;8.570;2023-03-03T21:14:19;4.10;99.90
23237;DHT22;11787;52.018;8.570;2023-03-03T21:16:44;4.10;99.90
23237;DHT22;11787;52.018;8.570;2023-03-03T21:19:11;4.10;99.90
23237;DHT22;11787;52.018;8.570;2023-03-03T21:21:38;4.10;99.90
23237;DHT22;11787;52.018;8.570;2023-03-03T21:24:04;4.10;99.90
23237;DHT22;11787;52.018;8.570;2023-03-03T21:29:31;4.10;99.90
23237;DHT22;11787;52.018;8.570;2023-03-03T21:32:01;4.20;99.90
23237;DHT22;11787;52.018;8.570;2023-03-03T21:34:33;4.10;99.90
23237;DHT22;11787;52.018;8.570;2023-03-03T21:37:03;4.10;99.90
23237;DHT22;11787;52.018;8.570;2023-03-03T21:39:33;4.10;99.90
23237;DHT22;11787;52.018;8.570;2023-03-03T21:42:06;4.10;99.90
23237;DHT22;11787;52.018;8.570;2023-03-03T21:44:33;4.00;99.90
23237;DHT22;11787;52.018;8.570;2023-03-03T21:46:59;4.10;99.90
23237;DHT22;11787;52.018;8.570;2023-03-03T21:49:25;4.10;99.90
23237;DHT22;11787;52.018;8.570;2023-03-03T21:51:50;4.00;99.90
23237;DHT22;11787;52.018;8.570;2023-03-03T21:54:16;4.10;99.90
23237;DHT22;11787;52.018;8.570;2023-03-03T21:56:41;4.10;99.90
23237;DHT22;11787;52.018;8.570;2023-03-03T21:59:07;4.10;99.90
23237;DHT22;11787;52.018;8.570;2023-03-03T22:01:33;4.10;99.90
23237;DHT22;11787;52.018;8.570;2023-03-03T22:03:59;4.20;99.90
23237;DHT22;11787;52.018;8.570;2023-03-03T22:06:25;4.20;99.90
23237;DHT22;11787;52.018;8.570;2023-03-03T22:08:51;4.20;99.90
23237;DHT22;11787;52.018;8.570;2023-03-03T22:11:16;4.20;99.90
23237;DHT22;11787;52.018;8.570;2023-03-03T22:13:42;4.20;99.90
23237;DHT22;11787;52.018;8.570;2023-03-03T22:16:07;4.20;99.90
23237;DHT22;11787;52.018;8.570;2023-03-03T22:18:33;4.30;99.90
23237;DHT22;11787;52.018;8.570;2023-03-03T22:20:58;4.20;99.90
23237;DHT22;11787;52.018;8.570;2023-03-03T22:23:24;4.20;99.90
23237;DHT22;11787;52.018;8.570;2023-03-03T22:25:49;4.30;99.90
23237;DHT22;11787;52.018;8.570;2023-03-03T22:28:15;4.20;99.90